createdAt,value
2022-09-02T00:00:03.773Z,99.90
2022-09-02T00:02:31.292Z,99.90
2022-09-02T00:04:58.144Z,99.90
2022-09-02T00:07:24.862Z,99.90
2022-09-02T00:09:51.729Z,99.90
2022-09-02T00:12:18.454Z,99.90
2022-09-02T00:14:45.125Z,99.90
2022-09-02T00:17:11.887Z,99.90
2022-09-02T00:19:38.665Z,99.90
2022-09-02T00:22:05.415Z,99.90
2022-09-02T00:24:32.477Z,99.90
2022-09-02T00:26:59.401Z,99.90
2022-09-02T00:29:27.463Z,99.90
2022-09-02T00:31:54.568Z,99.90
2022-09-02T00:34:25.371Z,99.90
2022-09-02T00:36:52.388Z,99.90
2022-09-02T00:39:20.616Z,99.90
2022-09-02T00:41:50.505Z,99.90
2022-09-02T00:44:18.958Z,99.90
2022-09-02T00:46:46.849Z,99.90
2022-09-02T00:49:40.428Z,99.90
2022-09-02T00:52:19.684Z,99.90
2022-09-02T00:55:00.605Z,99.90
2022-09-02T00:57:33.192Z,99.90
2022-09-02T01:00:17.369Z,99.90
2022-09-02T01:02:49.233Z,99.90
2022-09-02T01:05:18.694Z,99.90
2022-09-02T01:07:46.060Z,99.90
2022-09-02T01:10:17.589Z,99.90
2022-09-02T01:12:44.877Z,99.90
2022-09-02T01:15:13.569Z,99.90
2022-09-02T01:17:47.609Z,99.90
2022-09-02T01:20:18.847Z,99.90
2022-09-02T01:22:49.080Z,99.90
2022-09-02T01:25:22.514Z,99.90
2022-09-02T01:27:50.176Z,99.90
2022-09-02T01:30:24.432Z,99.90
2022-09-02T01:32:54.237Z,99.90
2022-09-02T01:35:21.343Z,99.90
2022-09-02T01:37:54.838Z,99.90
2022-09-02T01:40:24.294Z,99.90
2022-09-02T01:42:58.534Z,99.90
2022-09-02T01:45:25.658Z,99.90
2022-09-02T01:47:53.007Z,99.90
2022-09-02T01:50:20.002Z,99.90
2022-09-02T01:52:46.757Z,99.90
2022-09-02T01:55:14.565Z,99.90
2022-09-02T01:57:41.477Z,99.90
2022-09-02T02:00:11.948Z,99.90
2022-09-02T02:02:39.679Z,99.90
2022-09-02T02:05:10.631Z,99.90
2022-09-02T02:07:37.716Z,99.90
2022-09-02T02:10:05.890Z,99.90
2022-09-02T02:12:32.604Z,99.90
2022-09-02T02:15:02.998Z,99.90
2022-09-02T02:17:29.729Z,99.90
2022-09-02T02:19:56.493Z,99.90
2022-09-02T02:22:23.639Z,99.90
2022-09-02T02:24:50.491Z,99.90
2022-09-02T02:27:19.455Z,99.90
2022-09-02T02:29:46.218Z,99.90
2022-09-02T02:32:13.419Z,99.90
2022-09-02T02:34:47.856Z,99.90
2022-09-02T02:37:15.049Z,99.90
2022-09-02T02:39:44.864Z,99.90
2022-09-02T02:42:13.373Z,99.90
2022-09-02T02:44:42.817Z,99.90
2022-09-02T02:47:10.152Z,99.90
2022-09-02T02:49:39.824Z,99.90
2022-09-02T02:52:09.171Z,99.90
2022-09-02T02:54:36.589Z,99.90
2022-09-02T02:57:06.906Z,99.90
2022-09-02T02:59:33.675Z,99.90
2022-09-02T03:02:03.968Z,99.90
2022-09-02T03:04:31.082Z,99.90
2022-09-02T03:07:00.508Z,99.90
2022-09-02T03:09:27.190Z,99.90
2022-09-02T03:11:53.896Z,99.90
2022-09-02T03:14:20.589Z,99.90
2022-09-02T03:16:50.290Z,99.90
2022-09-02T03:19:16.973Z,99.90
2022-09-02T03:21:43.816Z,99.90
2022-09-02T03:24:12.125Z,99.90
2022-09-02T03:26:41.487Z,99.90
2022-09-02T03:29:08.570Z,99.90
2022-09-02T03:31:35.525Z,99.90
2022-09-02T03:34:05.289Z,99.90
2022-09-02T03:36:36.860Z,99.90
2022-09-02T03:39:09.736Z,99.90
2022-09-02T03:41:37.239Z,99.90
2022-09-02T03:44:06.696Z,99.90
2022-09-02T03:46:33.803Z,99.90
2022-09-02T03:49:00.833Z,99.90
2022-09-02T03:51:28.162Z,99.90
2022-09-02T03:53:57.672Z,99.90
2022-09-02T03:56:25.266Z,99.90
2022-09-02T03:58:53.057Z,99.90
2022-09-02T04:01:23.221Z,99.90
2022-09-02T04:03:50.554Z,99.90
2022-09-02T04:06:19.993Z,99.90
2022-09-02T04:08:48.193Z,99.90
2022-09-02T04:11:18.299Z,99.90
2022-09-02T04:13:48.886Z,99.90
2022-09-02T04:16:19.089Z,99.90
2022-09-02T04:18:45.979Z,99.90
2022-09-02T04:21:13.856Z,99.90
2022-09-02T04:23:40.882Z,99.90
2022-09-02T04:26:10.997Z,99.90
2022-09-02T04:28:38.260Z,99.90
2022-09-02T04:31:10.162Z,99.90
2022-09-02T04:33:40.527Z,99.90
2022-09-02T04:36:10.475Z,99.90
2022-09-02T04:38:40.052Z,99.90
2022-09-02T04:41:12.937Z,99.90
2022-09-02T04:43:39.861Z,99.90
2022-09-02T04:46:09.219Z,99.90
2022-09-02T04:48:38.911Z,99.90
2022-09-02T04:51:17.822Z,99.90
2022-09-02T04:53:45.587Z,99.90
2022-09-02T04:56:15.334Z,99.90
2022-09-02T04:58:44.330Z,99.90
2022-09-02T05:01:21.047Z,99.90
2022-09-02T05:03:51.815Z,99.90
2022-09-02T05:06:23.930Z,99.90
2022-09-02T05:08:50.790Z,99.90
2022-09-02T05:11:20.226Z,99.90
2022-09-02T05:13:51.586Z,99.90
2022-09-02T05:16:23.943Z,99.90
2022-09-02T05:18:52.070Z,99.90
2022-09-02T05:21:19.187Z,99.90
2022-09-02T05:23:46.452Z,99.90
2022-09-02T05:26:13.614Z,99.90
2022-09-02T05:28:41.475Z,99.90
2022-09-02T05:31:12.704Z,99.90
2022-09-02T05:33:41.178Z,99.90
2022-09-02T05:36:17.089Z,99.90
2022-09-02T05:38:44.978Z,99.90
2022-09-02T05:41:15.975Z,99.90
2022-09-02T05:43:44.603Z,99.90
2022-09-02T05:46:14.766Z,99.90
2022-09-02T05:49:00.061Z,99.90
2022-09-02T05:51:26.743Z,99.90
2022-09-02T05:53:59.380Z,99.90
2022-09-02T05:56:27.517Z,99.90
2022-09-02T05:58:57.224Z,99.90
2022-09-02T06:01:24.505Z,99.90
2022-09-02T06:03:52.253Z,99.90
2022-09-02T06:06:23.870Z,99.90
2022-09-02T06:08:56.258Z,99.90
2022-09-02T06:11:23.203Z,99.90
2022-09-02T06:13:49.942Z,99.90
2022-09-02T06:16:19.443Z,99.90
2022-09-02T06:18:52.545Z,99.90
2022-09-02T06:21:21.006Z,99.90
2022-09-02T06:23:48.045Z,99.90
2022-09-02T06:26:17.209Z,99.90
2022-09-02T06:28:44.634Z,99.90
2022-09-02T06:31:22.962Z,99.90
2022-09-02T06:33:53.123Z,99.90
2022-09-02T06:36:23.582Z,99.90
2022-09-02T06:38:56.839Z,99.90
2022-09-02T06:41:28.383Z,99.90
2022-09-02T06:44:00.306Z,99.90
2022-09-02T06:46:30.646Z,99.90
2022-09-02T06:48:57.889Z,99.90
2022-09-02T06:51:31.040Z,99.90
2022-09-02T06:53:59.037Z,99.90
2022-09-02T06:56:27.800Z,99.90
2022-09-02T06:58:55.177Z,99.90
2022-09-02T07:01:24.756Z,99.90
2022-09-02T07:04:13.373Z,99.90
2022-09-02T07:06:49.173Z,99.90
2022-09-02T07:09:19.295Z,99.20
2022-09-02T07:11:48.051Z,98.80
2022-09-02T07:14:17.067Z,98.80
2022-09-02T07:16:57.632Z,98.50
2022-09-02T07:19:27.707Z,98.30
2022-09-02T07:21:54.866Z,98.30
2022-09-02T07:24:21.937Z,98.40
2022-09-02T07:26:49.198Z,98.20
2022-09-02T07:29:16.801Z,98.30
2022-09-02T07:31:46.707Z,98.00
2022-09-02T07:34:15.031Z,97.60
2022-09-02T07:36:42.804Z,97.10
2022-09-02T07:39:11.907Z,96.90
2022-09-02T07:41:39.927Z,97.10
2022-09-02T07:44:07.791Z,97.10
2022-09-02T07:46:37.569Z,96.80
2022-09-02T07:49:09.404Z,96.60
2022-09-02T07:51:39.152Z,95.80
2022-09-02T07:54:11.153Z,96.40
2022-09-02T07:56:37.977Z,96.20
2022-09-02T07:59:05.181Z,96.40
2022-09-02T08:01:32.558Z,96.40
2022-09-02T08:04:01.481Z,95.50
2022-09-02T08:06:34.324Z,95.70
2022-09-02T08:09:06.919Z,95.70
2022-09-02T08:11:39.263Z,95.60
2022-09-02T08:14:13.778Z,95.50
2022-09-02T08:16:44.516Z,95.80
2022-09-02T08:19:12.439Z,95.40
2022-09-02T08:21:41.932Z,95.10
2022-09-02T08:24:09.788Z,94.60
2022-09-02T08:26:41.571Z,95.30
2022-09-02T08:29:09.926Z,94.20
2022-09-02T08:31:38.277Z,94.30
2022-09-02T08:34:05.197Z,94.40
2022-09-02T08:36:31.944Z,94.20
2022-09-02T08:38:58.707Z,93.90
2022-09-02T08:41:31.591Z,93.70
2022-09-02T08:44:00.967Z,93.80
2022-09-02T08:46:31.288Z,94.40
2022-09-02T08:49:08.255Z,94.20
2022-09-02T08:51:58.187Z,94.90
2022-09-02T08:54:43.966Z,94.00
2022-09-02T08:57:11.292Z,93.70
2022-09-02T09:02:25.303Z,93.70
2022-09-02T09:05:18.207Z,93.60
2022-09-02T09:08:03.348Z,93.20
2022-09-02T09:11:00.878Z,92.70
2022-09-02T09:13:30.587Z,92.80
2022-09-02T09:16:19.579Z,92.40
2022-09-02T09:19:08.826Z,92.50
2022-09-02T09:21:35.924Z,92.90
2022-09-02T09:24:19.322Z,93.00
2022-09-02T09:26:49.726Z,92.20
2022-09-02T09:29:16.562Z,92.00
2022-09-02T09:31:53.304Z,92.10
2022-09-02T09:34:23.353Z,92.10
2022-09-02T09:36:55.887Z,91.50
2022-09-02T09:39:30.075Z,91.50
2022-09-02T09:42:02.897Z,92.00
2022-09-02T09:44:40.808Z,91.30
2022-09-02T09:47:26.034Z,91.20
2022-09-02T09:50:13.878Z,90.20
2022-09-02T09:52:40.733Z,85.00
2022-09-02T09:55:24.832Z,88.30
2022-09-02T09:58:07.611Z,88.50
2022-09-02T10:00:34.710Z,88.70
2022-09-02T10:03:05.430Z,89.70
2022-09-02T10:05:40.508Z,89.40
2022-09-02T10:08:16.433Z,90.10
2022-09-02T10:11:21.523Z,90.20
2022-09-02T10:13:48.307Z,88.70
2022-09-02T10:16:33.083Z,86.80
2022-09-02T10:19:05.741Z,88.20
2022-09-02T10:22:04.150Z,85.30
2022-09-02T10:24:51.278Z,83.40
2022-09-02T10:27:33.861Z,85.80
2022-09-02T10:30:06.298Z,84.30
2022-09-02T10:32:43.050Z,83.60
2022-09-02T10:35:26.970Z,83.50
2022-09-02T10:38:26.510Z,84.20
2022-09-02T10:41:11.149Z,81.80
2022-09-02T10:44:00.134Z,79.90
2022-09-02T10:46:54.833Z,82.60
2022-09-02T10:49:38.452Z,81.60
2022-09-02T10:52:22.911Z,81.40
2022-09-02T10:55:37.987Z,83.20
2022-09-02T10:58:19.354Z,83.10
2022-09-02T11:00:51.659Z,83.40
2022-09-02T11:03:54.234Z,81.70
2022-09-02T11:06:58.773Z,81.00
2022-09-02T11:09:28.631Z,82.30
2022-09-02T11:12:09.445Z,82.10
2022-09-02T11:14:48.275Z,81.80
2022-09-02T11:17:44.225Z,82.70
2022-09-02T11:20:44.378Z,83.50
2022-09-02T11:23:20.749Z,82.60
2022-09-02T11:25:52.487Z,81.60
2022-09-02T11:28:36.131Z,82.40
2022-09-02T11:31:07.649Z,82.40
2022-09-02T11:36:41.129Z,84.40
2022-09-02T11:39:10.907Z,84.30
2022-09-02T11:41:56.712Z,84.30
2022-09-02T11:44:53.864Z,85.70
2022-09-02T11:47:30.218Z,85.20
2022-09-02T11:50:15.449Z,83.80
2022-09-02T11:53:21.240Z,84.00
2022-09-02T11:56:11.980Z,84.40
2022-09-02T11:58:52.490Z,82.60
2022-09-02T12:01:43.975Z,82.40
2022-09-02T12:07:08.563Z,82.30
2022-09-02T12:09:55.659Z,82.60
2022-09-02T12:12:38.289Z,82.40
2022-09-02T12:15:05.419Z,83.10
2022-09-02T12:17:49.893Z,82.40
2022-09-02T12:20:39.234Z,81.30
2022-09-02T12:23:08.338Z,80.90
2022-09-02T12:25:50.122Z,82.00
2022-09-02T12:28:30.413Z,80.50
2022-09-02T12:31:07.725Z,80.10
2022-09-02T12:33:51.858Z,80.60
2022-09-02T12:36:42.774Z,80.30
2022-09-02T12:39:23.385Z,79.40
2022-09-02T12:42:17.290Z,80.20
2022-09-02T12:45:15.008Z,79.40
2022-09-02T12:48:00.610Z,78.60
2022-09-02T12:50:50.720Z,77.70
2022-09-02T12:53:23.580Z,77.20
2022-09-02T12:56:06.365Z,76.90
2022-09-02T12:58:41.265Z,77.00
2022-09-02T13:01:14.108Z,77.80
2022-09-02T13:04:08.155Z,76.80
2022-09-02T13:06:54.327Z,77.10
2022-09-02T13:09:39.892Z,77.40
2022-09-02T13:12:40.672Z,77.50
2022-09-02T13:15:25.643Z,77.40
2022-09-02T13:18:40.315Z,76.00
2022-09-02T13:21:42.164Z,75.80
2022-09-02T13:24:43.065Z,75.50
2022-09-02T13:27:34.785Z,75.00
2022-09-02T13:30:39.893Z,75.10
2022-09-02T13:33:10.044Z,76.00
2022-09-02T13:35:39.713Z,75.70
2022-09-02T13:40:46.331Z,74.90
2022-09-02T13:43:13.238Z,75.00
2022-09-02T13:45:40.595Z,74.80
2022-09-02T13:48:10.343Z,75.30
2022-09-02T13:50:42.468Z,75.70
2022-09-02T14:01:30.056Z,75.00
2022-09-02T14:03:59.907Z,73.20
2022-09-02T14:06:39.818Z,74.40
2022-09-02T14:09:11.291Z,74.30
2022-09-02T14:11:45.750Z,73.70
2022-09-02T14:14:22.175Z,73.40
2022-09-02T14:16:49.217Z,74.60
2022-09-02T14:19:24.571Z,73.80
2022-09-02T14:21:58.776Z,73.70
2022-09-02T14:24:28.885Z,72.70
2022-09-02T14:34:47.883Z,72.10
2022-09-02T14:37:29.147Z,74.70
2022-09-02T14:40:12.249Z,74.10
2022-09-02T14:42:55.238Z,72.30
2022-09-02T14:45:27.165Z,71.80
2022-09-02T14:47:55.124Z,70.70
2022-09-02T14:50:27.498Z,71.60
2022-09-02T14:53:07.172Z,70.40
2022-09-02T14:55:47.176Z,71.40
2022-09-02T14:58:15.244Z,72.10
2022-09-02T15:00:45.654Z,72.00
2022-09-02T15:03:16.257Z,70.70
2022-09-02T15:05:43.546Z,70.10
2022-09-02T15:15:42.013Z,71.70
2022-09-02T15:18:09.183Z,69.20
2022-09-02T15:20:36.443Z,69.60
2022-09-02T15:23:03.250Z,69.60
2022-09-02T15:25:30.558Z,69.70
2022-09-02T15:27:57.384Z,69.20
2022-09-02T15:30:24.234Z,69.40
2022-09-02T15:32:51.184Z,69.30
2022-09-02T15:35:20.669Z,68.70
2022-09-02T15:37:52.638Z,69.60
2022-09-02T15:40:19.364Z,69.20
2022-09-02T15:42:46.042Z,68.60
2022-09-02T15:45:12.733Z,68.30
2022-09-02T15:47:39.422Z,68.90
2022-09-02T15:50:06.465Z,68.60
2022-09-02T15:52:36.629Z,68.00
2022-09-02T15:55:03.609Z,67.90
2022-09-02T15:57:33.455Z,69.20
2022-09-02T16:00:00.195Z,69.50
2022-09-02T16:02:29.656Z,69.80
2022-09-02T16:04:59.700Z,69.00
2022-09-02T16:07:26.485Z,70.40
2022-09-02T16:09:53.307Z,71.10
2022-09-02T16:12:20.019Z,72.20
2022-09-02T16:14:50.962Z,74.00
2022-09-02T16:17:17.969Z,75.20
2022-09-02T16:19:44.935Z,75.90
2022-09-02T16:22:11.581Z,76.00
2022-09-02T16:24:38.603Z,76.20
2022-09-02T16:27:05.678Z,76.20
2022-09-02T16:29:32.986Z,76.20
2022-09-02T16:34:50.123Z,76.30
2022-09-02T16:37:24.872Z,76.70
2022-09-02T16:39:52.983Z,76.20
2022-09-02T16:42:19.719Z,76.20
2022-09-02T16:44:51.827Z,76.70
2022-09-02T16:47:19.246Z,76.70
2022-09-02T16:49:46.546Z,77.50
2022-09-02T16:52:13.874Z,77.80
2022-09-02T16:54:41.391Z,78.10
2022-09-02T16:57:08.975Z,78.30
2022-09-02T16:59:35.907Z,78.30
2022-09-02T17:02:02.778Z,78.90
2022-09-02T17:04:29.752Z,78.40
2022-09-02T17:06:56.821Z,78.40
2022-09-02T17:09:23.570Z,79.00
2022-09-02T17:11:50.338Z,79.00
2022-09-02T17:14:23.651Z,79.40
2022-09-02T17:16:51.821Z,79.50
2022-09-02T17:19:22.933Z,79.60
2022-09-02T17:21:52.121Z,79.80
2022-09-02T17:24:24.787Z,79.80
2022-09-02T17:26:54.611Z,80.20
2022-09-02T17:32:09.920Z,81.40
2022-09-02T17:34:37.448Z,81.30
2022-09-02T17:37:05.230Z,82.00
2022-09-02T17:39:37.724Z,81.80
2022-09-02T17:42:06.394Z,81.90
2022-09-02T17:44:39.379Z,82.40
2022-09-02T17:47:11.272Z,82.50
2022-09-02T17:49:41.798Z,83.40
2022-09-02T17:52:09.247Z,83.00
2022-09-02T17:54:37.721Z,82.40
2022-09-02T17:57:10.573Z,82.60
2022-09-02T17:59:46.476Z,82.70
2022-09-02T18:02:42.653Z,82.90
2022-09-02T18:05:16.831Z,83.30
2022-09-02T18:08:01.684Z,83.60
2022-09-02T18:10:33.398Z,84.10
2022-09-02T18:13:35.703Z,84.50
2022-09-02T18:16:25.946Z,84.80
2022-09-02T18:19:19.580Z,85.20
2022-09-02T18:21:58.537Z,85.70
2022-09-02T18:24:50.395Z,85.80
2022-09-02T18:27:49.942Z,86.10
2022-09-02T18:30:31.062Z,86.10
2022-09-02T18:33:24.784Z,86.40
2022-09-02T18:36:03.367Z,86.40
2022-09-02T18:39:08.068Z,87.30
2022-09-02T18:41:59.882Z,87.30
2022-09-02T18:44:36.226Z,87.60
2022-09-02T18:47:32.754Z,87.50
2022-09-02T18:50:01.849Z,87.80
2022-09-02T18:52:29.610Z,87.80
2022-09-02T18:55:16.027Z,88.10
2022-09-02T18:57:51.994Z,87.90
2022-09-02T19:00:22.155Z,88.10
2022-09-02T19:03:03.505Z,88.30
2022-09-02T19:05:33.715Z,88.40
2022-09-02T19:08:20.812Z,88.30
2022-09-02T19:10:47.871Z,88.40
2022-09-02T19:13:15.238Z,88.40
2022-09-02T19:15:42.256Z,88.50
2022-09-02T19:18:10.680Z,88.70
2022-09-02T19:20:38.786Z,88.90
2022-09-02T19:23:08.206Z,88.90
2022-09-02T19:25:38.852Z,89.10
2022-09-02T19:28:06.205Z,89.20
2022-09-02T19:30:37.469Z,89.10
2022-09-02T19:33:09.338Z,89.30
2022-09-02T19:35:38.114Z,89.30
2022-09-02T19:38:04.988Z,89.50
2022-09-02T19:40:33.579Z,89.50
2022-09-02T19:43:03.348Z,89.60
2022-09-02T19:45:31.893Z,89.80
2022-09-02T19:48:08.275Z,89.90
2022-09-02T19:50:43.600Z,89.90
2022-09-02T19:53:16.209Z,90.00
2022-09-02T19:55:43.150Z,90.10
2022-09-02T19:58:10.048Z,90.20
2022-09-02T20:00:37.542Z,90.20
2022-09-02T20:03:04.400Z,90.30
2022-09-02T20:05:31.320Z,90.30
2022-09-02T20:08:01.029Z,90.50
2022-09-02T20:10:29.814Z,90.50
2022-09-02T20:12:59.153Z,90.60
2022-09-02T20:15:25.946Z,90.70
2022-09-02T20:17:52.965Z,90.70
2022-09-02T20:20:22.708Z,90.70
2022-09-02T20:22:57.901Z,90.70
2022-09-02T20:25:34.701Z,90.80
2022-09-02T20:28:19.554Z,90.90
2022-09-02T20:30:53.078Z,90.90
2022-09-02T20:33:22.018Z,91.00
2022-09-02T20:36:00.632Z,91.10
2022-09-02T20:39:13.577Z,91.20
2022-09-02T20:42:04.593Z,91.20
2022-09-02T20:44:50.517Z,91.30
2022-09-02T20:47:24.470Z,91.30
2022-09-02T20:50:20.073Z,91.40
2022-09-02T20:53:13.827Z,91.40
2022-09-02T20:56:24.618Z,91.30
2022-09-02T20:59:04.753Z,91.50
2022-09-02T21:01:41.775Z,91.60
2022-09-02T21:04:38.216Z,91.60
2022-09-02T21:07:08.450Z,91.60
2022-09-02T21:09:52.908Z,91.70
2022-09-02T21:12:37.080Z,91.80
2022-09-02T21:15:09.085Z,91.90
2022-09-02T21:17:48.918Z,91.90
2022-09-02T21:20:44.178Z,91.80
2022-09-02T21:23:31.159Z,91.90
2022-09-02T21:26:04.130Z,92.00
2022-09-02T21:28:45.701Z,92.10
2022-09-02T21:31:40.723Z,92.20
2022-09-02T21:34:19.772Z,92.30
2022-09-02T21:36:46.829Z,92.40
2022-09-02T21:39:19.235Z,92.40
2022-09-02T21:42:00.735Z,92.60
2022-09-02T21:45:02.630Z,92.60
2022-09-02T21:47:39.471Z,92.70
2022-09-02T21:50:22.019Z,92.80
2022-09-02T21:52:49.127Z,92.80
2022-09-02T21:55:21.876Z,92.80
2022-09-02T21:58:31.829Z,92.80
2022-09-02T22:01:20.550Z,92.80
2022-09-02T22:04:05.616Z,92.90
2022-09-02T22:06:42.277Z,93.00
2022-09-02T22:09:32.200Z,93.10
2022-09-02T22:12:11.801Z,93.40
2022-09-02T22:15:01.734Z,93.50
2022-09-02T22:17:35.229Z,93.70
2022-09-02T22:20:05.332Z,93.80
2022-09-02T22:23:00.498Z,93.80
2022-09-02T22:25:30.562Z,93.90
2022-09-02T22:28:06.498Z,94.00
2022-09-02T22:30:36.686Z,94.20
2022-09-02T22:33:07.958Z,94.20
2022-09-02T22:35:56.905Z,94.20
2022-09-02T22:38:42.058Z,94.50
2022-09-02T22:41:30.927Z,94.50
2022-09-02T22:44:06.700Z,94.50
2022-09-02T22:47:10.385Z,94.50
2022-09-02T22:50:10.622Z,94.70
2022-09-02T22:52:57.317Z,94.80
2022-09-02T22:55:46.558Z,94.90
2022-09-02T22:58:49.727Z,94.90
2022-09-02T23:01:32.539Z,95.00
2022-09-02T23:04:11.361Z,95.10
2022-09-02T23:06:45.066Z,95.20
2022-09-02T23:09:14.030Z,95.10
2022-09-02T23:11:58.553Z,95.10
2022-09-02T23:15:09.964Z,95.20
2022-09-02T23:18:01.580Z,95.40
2022-09-02T23:21:10.877Z,95.50
2022-09-02T23:23:48.120Z,95.60
2022-09-02T23:26:58.084Z,95.70
2022-09-02T23:29:28.635Z,95.80
2022-09-02T23:32:20.854Z,95.80
2022-09-02T23:35:06.950Z,95.80
2022-09-02T23:37:51.434Z,95.80
2022-09-02T23:40:39.907Z,95.90
2022-09-02T23:43:10.068Z,96.10
2022-09-02T23:45:37.206Z,96.20
2022-09-02T23:48:15.672Z,96.30
2022-09-02T23:51:28.116Z,96.40
2022-09-02T23:54:02.080Z,96.40
2022-09-02T23:56:37.282Z,96.50
2022-09-02T23:59:28.352Z,96.50
